createdAt,value
2022-08-07T00:00:44.455Z,10.78
2022-08-07T00:02:36.883Z,10.79
2022-08-07T00:02:45.951Z,10.84
2022-08-07T00:03:47.292Z,10.84
2022-08-07T00:04:46.023Z,10.81
2022-08-07T00:05:46.433Z,10.76
2022-08-07T00:06:51.957Z,10.72
2022-08-07T00:07:47.014Z,10.71
2022-08-07T00:08:47.381Z,10.71
2022-08-07T00:10:04.750Z,10.69
2022-08-07T00:10:57.550Z,10.68
2022-08-07T00:11:55.839Z,10.61
2022-08-07T00:12:59.921Z,10.56
2022-08-07T00:13:49.161Z,10.53
2022-08-07T00:14:49.534Z,10.48
2022-08-07T00:15:50.770Z,10.46
2022-08-07T00:16:50.294Z,10.53
2022-08-07T00:17:50.598Z,10.54
2022-08-07T00:18:50.944Z,10.61
2022-08-07T00:20:01.391Z,10.68
2022-08-07T00:20:51.768Z,10.69
2022-08-07T00:21:56.041Z,10.75
2022-08-07T00:22:52.397Z,10.74
2022-08-07T00:23:52.741Z,10.72
2022-08-07T00:24:53.088Z,10.68
2022-08-07T00:26:00.009Z,10.68
2022-08-07T00:26:58.805Z,10.64
2022-08-07T00:27:56.509Z,10.64
2022-08-07T00:28:56.599Z,10.67
2022-08-07T00:29:54.889Z,10.67
2022-08-07T00:30:55.272Z,10.64
2022-08-07T00:31:55.623Z,10.61
2022-08-07T00:32:56.031Z,10.60
2022-08-07T00:33:56.360Z,10.59
2022-08-07T00:34:56.745Z,10.57
2022-08-07T00:35:57.119Z,10.54
2022-08-07T00:36:57.487Z,10.53
2022-08-07T00:37:57.830Z,10.48
2022-08-07T00:38:58.204Z,10.42
2022-08-07T00:39:58.642Z,10.41
2022-08-07T00:40:58.903Z,10.38
2022-08-07T00:42:02.079Z,10.35
2022-08-07T00:42:59.602Z,10.35
2022-08-07T00:44:02.809Z,10.42
2022-08-07T00:45:00.337Z,10.44
2022-08-07T00:46:01.904Z,10.48
2022-08-07T00:47:01.049Z,10.51
2022-08-07T00:48:09.702Z,10.57
2022-08-07T00:49:01.958Z,10.59
2022-08-07T00:50:19.370Z,10.57
2022-08-07T00:51:02.532Z,10.51
2022-08-07T00:52:02.867Z,10.51
2022-08-07T00:53:03.233Z,10.49
2022-08-07T00:54:03.570Z,10.44
2022-08-07T00:55:04.749Z,10.44
2022-08-07T00:56:04.308Z,10.41
2022-08-07T00:57:04.658Z,10.38
2022-08-07T00:58:05.093Z,10.34
2022-08-07T00:59:06.210Z,10.23
2022-08-07T01:00:05.724Z,10.16
2022-08-07T01:01:06.113Z,10.10
2022-08-07T01:02:14.029Z,10.10
2022-08-07T01:03:06.839Z,10.10
2022-08-07T01:04:07.427Z,10.09
2022-08-07T01:05:19.447Z,10.05
2022-08-07T01:06:07.934Z,10.02
2022-08-07T01:07:08.420Z,10.01
2022-08-07T01:08:09.089Z,9.99
2022-08-07T01:09:09.039Z,9.97
2022-08-07T01:10:11.273Z,9.94
2022-08-07T01:12:09.179Z,9.91
2022-08-07T01:12:33.996Z,9.87
2022-08-07T01:13:10.396Z,9.84
2022-08-07T01:14:10.765Z,9.83
2022-08-07T01:15:11.743Z,9.82
2022-08-07T01:16:11.480Z,9.82
2022-08-07T01:17:11.812Z,9.79
2022-08-07T01:18:17.146Z,9.76
2022-08-07T01:19:18.396Z,9.76
2022-08-07T01:20:16.970Z,9.74
2022-08-07T01:21:22.563Z,9.73
2022-08-07T01:22:22.617Z,9.72
2022-08-07T01:23:13.914Z,9.62
2022-08-07T01:24:14.265Z,9.56
2022-08-07T01:25:39.954Z,9.56
2022-08-07T01:26:16.749Z,9.61
2022-08-07T01:27:32.107Z,9.62
2022-08-07T01:28:15.724Z,9.61
2022-08-07T01:29:16.049Z,9.59
2022-08-07T01:30:16.420Z,9.58
2022-08-07T01:31:17.945Z,9.55
2022-08-07T01:32:17.114Z,9.50
2022-08-07T01:33:17.495Z,9.51
2022-08-07T01:34:17.832Z,9.50
2022-08-07T01:35:18.127Z,9.47
2022-08-07T01:36:18.519Z,9.47
2022-08-07T01:37:20.130Z,9.43
2022-08-07T01:38:24.851Z,9.37
2022-08-07T01:39:19.597Z,9.32
2022-08-07T01:40:19.856Z,9.26
2022-08-07T01:41:26.372Z,9.22
2022-08-07T01:42:40.057Z,9.19
2022-08-07T01:43:20.948Z,9.16
2022-08-07T01:44:21.275Z,9.14
2022-08-07T01:45:22.916Z,9.13
2022-08-07T01:46:22.003Z,9.08
2022-08-07T01:48:19.637Z,9.03
2022-08-07T01:48:35.680Z,9.02
2022-08-07T01:49:23.065Z,9.00
2022-08-07T01:50:28.823Z,8.94
2022-08-07T01:52:02.570Z,8.88
2022-08-07T01:52:24.093Z,8.88
2022-08-07T01:54:00.720Z,8.84
2022-08-07T01:54:33.052Z,8.84
2022-08-07T01:55:25.183Z,8.87
2022-08-07T01:56:25.561Z,8.95
2022-08-07T01:57:25.887Z,9.02
2022-08-07T01:58:28.875Z,9.08
2022-08-07T01:59:31.120Z,9.10
2022-08-07T02:00:29.013Z,9.13
2022-08-07T02:01:59.922Z,9.16
2022-08-07T02:02:32.976Z,9.18
2022-08-07T02:03:42.750Z,9.16
2022-08-07T02:04:28.532Z,9.16
2022-08-07T02:05:47.968Z,9.10
2022-08-07T02:06:31.737Z,9.08
2022-08-07T02:07:36.184Z,9.03
2022-08-07T02:08:29.857Z,9.03
2022-08-07T02:09:33.887Z,9.00
2022-08-07T02:10:30.565Z,9.03
2022-08-07T02:12:02.889Z,9.02
2022-08-07T02:12:31.279Z,9.02
2022-08-07T02:13:57.824Z,9.00
2022-08-07T02:14:35.987Z,8.92
2022-08-07T02:15:32.330Z,8.78
2022-08-07T02:16:33.282Z,8.71
2022-08-07T02:17:34.348Z,8.67
2022-08-07T02:18:33.359Z,8.66
2022-08-07T02:20:05.035Z,8.67
2022-08-07T02:20:34.119Z,8.70
2022-08-07T02:21:56.280Z,8.73
2022-08-07T02:22:34.824Z,8.76
2022-08-07T02:23:36.018Z,8.78
2022-08-07T02:24:35.459Z,8.78
2022-08-07T02:26:31.508Z,8.81
2022-08-07T02:26:37.714Z,8.78
2022-08-07T02:27:36.487Z,8.78
2022-08-07T02:28:36.893Z,8.73
2022-08-07T02:29:48.526Z,8.70
2022-08-07T02:30:37.635Z,8.64
2022-08-07T02:31:37.985Z,8.58
2022-08-07T02:32:39.609Z,8.53
2022-08-07T02:33:57.325Z,8.58
2022-08-07T02:34:39.027Z,8.60
2022-08-07T02:36:29.456Z,8.55
2022-08-07T02:36:39.899Z,8.53
2022-08-07T02:37:44.160Z,8.51
2022-08-07T02:38:40.424Z,8.52
2022-08-07T02:39:43.403Z,8.52
2022-08-07T02:40:41.204Z,8.46
2022-08-07T02:41:41.619Z,8.51
2022-08-07T02:42:41.889Z,8.49
2022-08-07T02:43:42.222Z,8.52
2022-08-07T02:44:47.779Z,8.55
2022-08-07T02:45:59.379Z,8.55
2022-08-07T02:46:46.900Z,8.60
2022-08-07T02:47:45.387Z,8.69
2022-08-07T02:48:54.725Z,8.73
2022-08-07T02:49:58.466Z,8.76
2022-08-07T02:50:44.665Z,8.82
2022-08-07T02:51:52.042Z,8.81
2022-08-07T02:52:47.824Z,8.82
2022-08-07T02:53:45.723Z,8.84
2022-08-07T02:54:46.044Z,8.87
2022-08-07T02:56:03.662Z,8.84
2022-08-07T02:56:46.802Z,8.85
2022-08-07T02:57:47.131Z,8.84
2022-08-07T02:58:48.387Z,8.88
2022-08-07T02:59:54.996Z,8.95
2022-08-07T03:00:48.256Z,8.92
2022-08-07T03:01:52.255Z,8.92
2022-08-07T03:02:54.582Z,8.91
2022-08-07T03:03:50.872Z,8.89
2022-08-07T03:04:49.593Z,8.87
2022-08-07T03:05:49.902Z,8.81
2022-08-07T03:06:50.199Z,8.82
2022-08-07T03:08:07.766Z,8.82
2022-08-07T03:08:50.782Z,8.82
2022-08-07T03:09:52.499Z,8.85
2022-08-07T03:10:51.104Z,8.87
2022-08-07T03:11:52.258Z,8.87
2022-08-07T03:12:51.968Z,8.85
2022-08-07T03:13:51.840Z,8.87
2022-08-07T03:14:52.760Z,8.89
2022-08-07T03:15:58.412Z,8.87
2022-08-07T03:16:52.736Z,8.85
2022-08-07T03:17:54.334Z,8.84
2022-08-07T03:18:53.329Z,8.78
2022-08-07T03:19:55.263Z,8.71
2022-08-07T03:20:53.855Z,8.70
2022-08-07T03:21:54.197Z,8.69
2022-08-07T03:22:54.320Z,8.66
2022-08-07T03:24:18.102Z,8.67
2022-08-07T03:24:54.910Z,8.70
2022-08-07T03:25:58.340Z,8.78
2022-08-07T03:26:58.972Z,8.88
2022-08-07T03:28:09.771Z,8.95
2022-08-07T03:28:55.971Z,9.02
2022-08-07T03:29:56.126Z,9.02
2022-08-07T03:30:56.419Z,9.04
2022-08-07T03:31:56.718Z,9.08
2022-08-07T03:32:59.345Z,9.10
2022-08-07T03:33:57.150Z,9.10
2022-08-07T03:35:16.884Z,9.08
2022-08-07T03:35:57.629Z,9.02
2022-08-07T03:36:58.057Z,9.03
2022-08-07T03:37:58.182Z,8.99
2022-08-07T03:38:58.577Z,9.02
2022-08-07T03:40:07.367Z,9.06
2022-08-07T03:40:59.108Z,9.11
2022-08-07T03:42:00.734Z,9.14
2022-08-07T03:42:59.621Z,9.14
2022-08-07T03:43:59.937Z,9.11
2022-08-07T03:45:00.096Z,9.04
2022-08-07T03:46:00.278Z,8.97
2022-08-07T03:47:11.454Z,8.95
2022-08-07T03:48:00.755Z,8.97
2022-08-07T03:49:02.473Z,8.99
2022-08-07T03:50:01.141Z,9.02
2022-08-07T03:51:01.413Z,9.03
2022-08-07T03:52:01.891Z,9.06
2022-08-07T03:53:01.931Z,9.13
2022-08-07T03:54:35.128Z,9.16
2022-08-07T03:55:06.880Z,9.21
2022-08-07T03:56:04.035Z,9.25
2022-08-07T03:57:06.995Z,9.28
2022-08-07T03:58:34.438Z,9.31
2022-08-07T03:59:13.405Z,9.34
2022-08-07T04:00:04.257Z,9.39
2022-08-07T04:01:04.162Z,9.37
2022-08-07T04:02:04.435Z,9.39
2022-08-07T04:03:05.255Z,9.40
2022-08-07T04:04:05.080Z,9.44
2022-08-07T04:05:05.100Z,9.48
2022-08-07T04:06:05.372Z,9.54
2022-08-07T04:07:16.632Z,9.55
2022-08-07T04:08:05.750Z,9.56
2022-08-07T04:09:06.063Z,9.56
2022-08-07T04:10:06.326Z,9.59
2022-08-07T04:12:25.414Z,9.61
2022-08-07T04:12:35.229Z,9.62
2022-08-07T04:13:07.012Z,9.65
2022-08-07T04:14:10.477Z,9.65
2022-08-07T04:15:07.469Z,9.65
2022-08-07T04:16:10.728Z,9.61
2022-08-07T04:17:20.034Z,9.59
2022-08-07T04:18:56.893Z,9.55
2022-08-07T04:19:14.822Z,9.55
2022-08-07T04:20:08.491Z,9.55
2022-08-07T04:21:08.743Z,9.56
2022-08-07T04:22:13.320Z,9.61
2022-08-07T04:23:09.266Z,9.58
2022-08-07T04:24:09.415Z,9.59
2022-08-07T04:25:12.546Z,9.72
2022-08-07T04:26:09.878Z,9.91
2022-08-07T04:27:20.542Z,10.35
2022-08-07T04:28:10.244Z,10.87
2022-08-07T04:29:11.001Z,11.36
2022-08-07T04:30:21.494Z,11.63
2022-08-07T04:31:19.619Z,11.86
2022-08-07T04:32:11.030Z,12.07
2022-08-07T04:33:13.809Z,12.22
2022-08-07T04:34:16.446Z,12.37
2022-08-07T04:35:11.611Z,12.50
2022-08-07T04:36:11.674Z,12.62
2022-08-07T04:37:20.264Z,12.62
2022-08-07T04:38:13.101Z,12.64
2022-08-07T04:39:12.384Z,12.55
2022-08-07T04:40:12.404Z,12.50
2022-08-07T04:41:18.073Z,12.61
2022-08-07T04:42:12.858Z,12.80
2022-08-07T04:43:13.114Z,13.05
2022-08-07T04:44:18.825Z,13.37
2022-08-07T04:45:13.440Z,13.68
2022-08-07T04:46:25.989Z,13.95
2022-08-07T04:47:23.455Z,14.17
2022-08-07T04:48:14.340Z,14.32
2022-08-07T04:49:24.267Z,14.63
2022-08-07T04:50:14.407Z,14.94
2022-08-07T04:51:14.542Z,15.18
2022-08-07T04:52:14.727Z,15.35
2022-08-07T04:53:27.759Z,15.47
2022-08-07T04:54:15.185Z,15.55
2022-08-07T04:58:16.965Z,15.82
2022-08-07T04:59:17.405Z,16.02
2022-08-07T05:00:14.625Z,16.53
2022-08-07T05:00:30.843Z,16.74
2022-08-07T05:01:02.329Z,16.90
2022-08-07T05:02:02.498Z,16.93
2022-08-07T05:03:02.690Z,17.09
2022-08-07T05:04:08.352Z,17.26
2022-08-07T05:05:03.098Z,17.36
2022-08-07T05:06:03.234Z,17.38
2022-08-07T05:07:19.439Z,17.39
2022-08-07T05:08:03.608Z,17.59
2022-08-07T05:09:03.896Z,17.68
2022-08-07T05:10:04.503Z,17.57
2022-08-07T05:11:04.171Z,17.63
2022-08-07T05:12:04.759Z,17.76
2022-08-07T05:14:44.517Z,17.89
2022-08-07T05:15:04.182Z,18.05
2022-08-07T05:15:09.246Z,18.26
2022-08-07T05:16:08.303Z,18.43
2022-08-07T05:17:11.825Z,18.45
2022-08-07T05:18:10.406Z,18.41
2022-08-07T05:19:08.873Z,18.50
2022-08-07T05:20:09.935Z,18.71
2022-08-07T05:21:09.261Z,18.90
2022-08-07T05:22:09.439Z,18.84
2022-08-07T05:23:15.794Z,18.78
2022-08-07T05:24:09.805Z,18.60
2022-08-07T05:25:11.705Z,18.45
2022-08-07T05:26:13.401Z,18.56
2022-08-07T05:27:23.448Z,18.74
2022-08-07T05:28:23.360Z,18.89
2022-08-07T05:29:10.775Z,18.92
2022-08-07T05:30:10.981Z,18.84
2022-08-07T05:31:11.165Z,18.75
2022-08-07T05:32:11.369Z,18.34
2022-08-07T05:33:11.609Z,18.13
2022-08-07T05:34:11.991Z,18.34
2022-08-07T05:35:11.921Z,18.56
2022-08-07T05:36:22.546Z,18.33
2022-08-07T05:37:12.243Z,18.52
2022-08-07T05:38:12.429Z,18.45
2022-08-07T05:40:06.030Z,18.59
2022-08-07T05:40:22.765Z,18.62
2022-08-07T05:41:15.879Z,18.78
2022-08-07T05:42:13.208Z,19.00
2022-08-07T05:43:13.323Z,19.21
2022-08-07T05:44:13.573Z,19.45
2022-08-07T05:45:26.170Z,19.69
2022-08-07T05:46:13.906Z,19.85
2022-08-07T05:47:18.621Z,19.96
2022-08-07T05:48:14.318Z,20.03
2022-08-07T05:49:14.605Z,20.21
2022-08-07T05:50:14.675Z,20.43
2022-08-07T05:51:14.866Z,20.55
2022-08-07T05:52:15.075Z,20.50
2022-08-07T05:54:12.732Z,20.44
2022-08-07T05:54:53.438Z,20.55
2022-08-07T05:55:15.661Z,20.63
2022-08-07T05:56:15.811Z,20.50
2022-08-07T05:57:15.995Z,20.65
2022-08-07T05:58:16.186Z,20.59
2022-08-07T05:59:16.495Z,20.18
2022-08-07T06:00:17.784Z,19.79
2022-08-07T06:01:16.858Z,19.89
2022-08-07T06:02:21.733Z,20.09
2022-08-07T06:03:17.160Z,20.14
2022-08-07T06:04:17.588Z,20.39
2022-08-07T06:05:17.589Z,20.80
2022-08-07T06:06:18.869Z,21.05
2022-08-07T06:07:32.715Z,21.29
2022-08-07T06:08:34.666Z,21.36
2022-08-07T06:09:18.369Z,20.85
2022-08-07T06:10:18.490Z,20.72
2022-08-07T06:11:18.696Z,20.93
2022-08-07T06:12:20.974Z,21.09
2022-08-07T06:13:19.043Z,21.46
2022-08-07T06:14:20.942Z,21.73
2022-08-07T06:15:19.893Z,21.76
2022-08-07T06:16:19.647Z,21.89
2022-08-07T06:17:22.339Z,21.99
2022-08-07T06:18:19.978Z,21.92
2022-08-07T06:19:57.573Z,21.75
2022-08-07T06:20:32.073Z,21.37
2022-08-07T06:22:15.778Z,20.88
2022-08-07T06:22:28.310Z,20.60
2022-08-07T06:23:46.869Z,20.21
2022-08-07T06:24:58.220Z,19.71
2022-08-07T06:25:21.288Z,19.27
2022-08-07T06:26:21.511Z,18.88
2022-08-07T06:27:22.693Z,18.47
2022-08-07T06:28:28.004Z,18.00
2022-08-07T06:29:22.045Z,17.59
2022-08-07T06:30:31.876Z,17.34
2022-08-07T06:31:38.387Z,17.12
2022-08-07T06:32:22.632Z,17.01
2022-08-07T06:33:22.966Z,16.90
2022-08-07T06:34:23.085Z,16.84
2022-08-07T06:35:23.157Z,16.78
2022-08-07T06:36:34.914Z,16.75
2022-08-07T06:37:23.543Z,16.74
2022-08-07T06:38:23.734Z,16.75
2022-08-07T06:40:13.237Z,16.74
2022-08-07T06:40:24.443Z,16.78
2022-08-07T06:41:58.777Z,16.81
2022-08-07T06:42:32.810Z,16.76
2022-08-07T06:43:24.639Z,16.79
2022-08-07T06:44:24.842Z,16.74
2022-08-07T06:45:25.020Z,16.86
2022-08-07T06:46:34.952Z,16.90
2022-08-07T06:47:27.002Z,16.96
2022-08-07T06:48:25.583Z,17.02
2022-08-07T06:49:25.737Z,17.05
2022-08-07T06:50:25.993Z,17.14
2022-08-07T06:51:33.298Z,17.15
2022-08-07T06:52:31.957Z,17.19
2022-08-07T06:55:29.920Z,17.15
2022-08-07T06:55:48.094Z,17.24
2022-08-07T06:56:07.555Z,17.29
2022-08-07T06:56:50.506Z,17.34
2022-08-07T06:57:52.197Z,17.36
2022-08-07T07:00:11.978Z,17.20
2022-08-07T07:00:20.635Z,17.16
2022-08-07T07:00:52.859Z,17.23
2022-08-07T07:01:50.962Z,17.34
2022-08-07T07:02:54.240Z,17.30
2022-08-07T07:03:58.879Z,17.34
2022-08-07T07:04:54.893Z,17.45
2022-08-07T07:06:03.730Z,17.42
2022-08-07T07:07:00.462Z,17.48
2022-08-07T07:07:59.717Z,17.42
2022-08-07T07:08:51.556Z,17.31
2022-08-07T07:09:51.742Z,17.38
2022-08-07T07:10:57.034Z,17.52
2022-08-07T07:12:08.781Z,17.60
2022-08-07T07:12:53.469Z,17.70
2022-08-07T07:13:57.966Z,17.76
2022-08-07T07:14:53.678Z,17.80
2022-08-07T07:15:52.894Z,17.82
2022-08-07T07:16:53.636Z,17.76
2022-08-07T07:17:53.299Z,17.70
2022-08-07T07:18:53.449Z,17.79
2022-08-07T07:19:57.408Z,17.90
2022-08-07T07:20:53.826Z,17.92
2022-08-07T07:22:04.789Z,17.92
2022-08-07T07:24:09.887Z,18.00
2022-08-07T07:24:16.675Z,18.05
2022-08-07T07:24:58.507Z,18.10
2022-08-07T07:26:35.008Z,18.19
2022-08-07T07:26:54.952Z,18.25
2022-08-07T07:27:58.500Z,18.34
2022-08-07T07:29:56.679Z,18.23
2022-08-07T07:30:12.504Z,18.28
2022-08-07T07:30:55.752Z,18.28
2022-08-07T07:31:55.905Z,18.26
2022-08-07T07:32:56.091Z,18.18
2022-08-07T07:33:57.146Z,18.18
2022-08-07T07:34:56.452Z,18.20
2022-08-07T07:36:05.449Z,18.16
2022-08-07T07:36:56.810Z,18.13
2022-08-07T07:38:02.744Z,18.16
2022-08-07T07:38:57.221Z,18.00
2022-08-07T07:39:57.386Z,18.07
2022-08-07T07:41:01.921Z,18.25
2022-08-07T07:42:12.906Z,18.13
2022-08-07T07:42:57.959Z,18.11
2022-08-07T07:44:17.558Z,18.13
2022-08-07T07:44:58.343Z,18.25
2022-08-07T07:46:37.635Z,18.33
2022-08-07T07:47:11.943Z,18.38
2022-08-07T07:47:58.877Z,18.47
2022-08-07T07:48:59.931Z,18.52
2022-08-07T07:50:34.217Z,18.50
2022-08-07T07:50:59.424Z,18.50
2022-08-07T07:51:59.886Z,18.53
2022-08-07T07:53:00.749Z,18.47
2022-08-07T07:54:00.000Z,18.60
2022-08-07T07:55:00.195Z,18.65
2022-08-07T07:56:01.176Z,18.59
2022-08-07T07:57:01.438Z,18.75
2022-08-07T07:58:00.748Z,18.93
2022-08-07T07:59:01.410Z,19.11
2022-08-07T08:00:01.138Z,19.15
2022-08-07T08:01:01.380Z,18.93
2022-08-07T08:02:10.666Z,18.86
2022-08-07T08:03:06.279Z,18.84
2022-08-07T08:04:06.170Z,18.92
2022-08-07T08:05:02.062Z,18.92
2022-08-07T08:06:02.225Z,19.07
2022-08-07T08:07:02.770Z,19.07
2022-08-07T08:08:02.857Z,18.92
2022-08-07T08:09:02.815Z,19.00
2022-08-07T08:10:05.323Z,19.07
2022-08-07T08:11:03.165Z,19.19
2022-08-07T08:12:05.023Z,19.12
2022-08-07T08:13:03.569Z,19.11
2022-08-07T08:14:03.747Z,19.11
2022-08-07T08:15:06.755Z,18.92
2022-08-07T08:16:04.126Z,18.84
2022-08-07T08:17:32.357Z,18.83
2022-08-07T08:18:17.605Z,18.74
2022-08-07T08:19:18.081Z,18.80
2022-08-07T08:20:26.262Z,18.78
2022-08-07T08:21:05.052Z,18.95
2022-08-07T08:22:05.208Z,18.96
2022-08-07T08:23:06.456Z,19.00
2022-08-07T08:24:05.642Z,19.16
2022-08-07T08:25:24.699Z,19.26
2022-08-07T08:26:07.203Z,19.07
2022-08-07T08:27:09.559Z,19.16
2022-08-07T08:28:06.408Z,19.36
2022-08-07T08:29:06.585Z,19.45
2022-08-07T08:30:06.746Z,19.39
2022-08-07T08:31:06.937Z,19.08
2022-08-07T08:32:17.918Z,18.99
2022-08-07T08:33:10.447Z,19.00
2022-08-07T08:34:07.500Z,19.16
2022-08-07T08:35:07.679Z,19.26
2022-08-07T08:36:07.877Z,19.15
2022-08-07T08:37:09.874Z,19.24
2022-08-07T08:38:08.479Z,19.40
2022-08-07T08:39:08.462Z,19.49
2022-08-07T08:40:11.508Z,19.54
2022-08-07T08:41:08.815Z,19.70
2022-08-07T08:42:09.257Z,19.74
2022-08-07T08:43:09.246Z,19.67
2022-08-07T08:44:09.363Z,19.69
2022-08-07T08:45:13.379Z,19.63
2022-08-07T08:46:09.748Z,19.33
2022-08-07T08:47:11.357Z,19.14
2022-08-07T08:48:10.782Z,19.07
2022-08-07T08:49:10.335Z,19.27
2022-08-07T08:50:10.844Z,19.54
2022-08-07T08:51:14.513Z,19.64
2022-08-07T08:52:14.525Z,19.91
2022-08-07T08:53:11.094Z,20.18
2022-08-07T08:54:11.280Z,20.37
2022-08-07T08:55:12.146Z,20.80
2022-08-07T08:56:12.092Z,20.85
2022-08-07T08:57:11.822Z,21.35
2022-08-07T08:58:13.254Z,21.64
2022-08-07T08:59:13.960Z,21.42
2022-08-07T09:00:12.382Z,22.18
2022-08-07T09:01:14.700Z,22.54
2022-08-07T09:02:13.280Z,22.73
2022-08-07T09:03:12.960Z,22.20
2022-08-07T09:04:13.527Z,22.60
2022-08-07T09:05:14.669Z,23.15
2022-08-07T09:06:13.549Z,23.23
2022-08-07T09:07:13.760Z,23.36
2022-08-07T09:08:17.871Z,22.30
2022-08-07T09:09:21.013Z,22.39
2022-08-07T09:10:14.327Z,21.83
2022-08-07T09:11:24.715Z,22.20
2022-08-07T09:12:31.312Z,22.33
2022-08-07T09:13:15.040Z,22.26
2022-08-07T09:14:15.040Z,22.33
2022-08-07T09:16:21.523Z,22.83
2022-08-07T09:16:31.446Z,23.39
2022-08-07T09:17:15.602Z,23.61
2022-08-07T09:18:22.276Z,23.87
2022-08-07T09:19:51.798Z,23.17
2022-08-07T09:20:35.909Z,22.73
2022-08-07T09:21:33.742Z,22.76
2022-08-07T09:24:28.983Z,22.65
2022-08-07T09:24:55.241Z,22.73
2022-08-07T09:25:12.040Z,23.12
2022-08-07T09:25:54.362Z,23.02
2022-08-07T09:26:47.831Z,23.00
2022-08-07T09:28:00.001Z,23.05
2022-08-07T09:30:04.644Z,22.65
2022-08-07T09:30:13.974Z,22.22
2022-08-07T09:30:46.324Z,21.58
2022-08-07T09:31:48.456Z,21.69
2022-08-07T09:32:46.411Z,21.46
2022-08-07T09:33:56.720Z,21.83
2022-08-07T09:34:53.694Z,22.47
2022-08-07T09:36:04.671Z,21.85
2022-08-07T09:36:49.828Z,21.75
2022-08-07T09:37:53.971Z,21.69
2022-08-07T09:38:50.198Z,21.27
2022-08-07T09:39:54.149Z,21.22
2022-08-07T09:40:47.909Z,21.48
2022-08-07T09:41:59.156Z,22.02
2022-08-07T09:42:50.391Z,22.36
2022-08-07T09:44:05.981Z,22.13
2022-08-07T09:47:27.512Z,22.26
2022-08-07T09:48:08.932Z,21.92
2022-08-07T09:48:19.062Z,22.45
2022-08-07T09:50:00.731Z,21.98
2022-08-07T09:50:18.610Z,22.54
2022-08-07T09:52:10.565Z,22.78
2022-08-07T09:52:37.740Z,23.40
2022-08-07T09:53:16.603Z,23.87
2022-08-07T09:54:16.814Z,23.76
2022-08-07T09:55:36.951Z,22.78
2022-08-07T09:56:19.729Z,22.41
2022-08-07T09:57:17.379Z,22.23
2022-08-07T09:58:17.679Z,22.18
2022-08-07T09:59:22.036Z,22.54
2022-08-07T10:00:18.799Z,23.00
2022-08-07T10:01:51.439Z,22.29
2022-08-07T10:02:18.337Z,21.66
2022-08-07T10:04:03.098Z,21.40
2022-08-07T10:04:32.572Z,21.45
2022-08-07T10:05:18.972Z,22.65
2022-08-07T10:06:19.237Z,23.20
2022-08-07T10:07:24.496Z,23.55
2022-08-07T10:08:19.641Z,23.62
2022-08-07T10:09:34.570Z,23.56
2022-08-07T10:10:21.276Z,23.54
2022-08-07T10:12:03.308Z,23.68
2022-08-07T10:12:21.899Z,23.80
2022-08-07T10:13:54.833Z,24.29
2022-08-07T10:14:23.083Z,24.43
2022-08-07T10:15:20.985Z,24.84
2022-08-07T10:16:21.171Z,25.13
2022-08-07T10:17:21.385Z,24.81
2022-08-07T10:18:22.060Z,24.99
2022-08-07T10:19:21.771Z,24.96
2022-08-07T10:20:22.295Z,24.50
2022-08-07T10:22:14.137Z,23.31
2022-08-07T10:22:24.919Z,22.91
2022-08-07T10:24:04.773Z,23.03
2022-08-07T10:24:22.729Z,22.83
2022-08-07T10:25:23.141Z,22.57
2022-08-07T10:26:24.685Z,21.75
2022-08-07T10:27:24.187Z,21.51
2022-08-07T10:28:23.534Z,21.11
2022-08-07T10:29:23.720Z,21.02
2022-08-07T10:30:24.947Z,21.52
2022-08-07T10:31:24.092Z,22.08
2022-08-07T10:32:37.060Z,22.72
2022-08-07T10:34:07.028Z,23.21
2022-08-07T10:34:27.275Z,23.61
2022-08-07T10:35:25.786Z,23.66
2022-08-07T10:36:29.348Z,23.77
2022-08-07T10:37:48.376Z,24.21
2022-08-07T10:38:36.011Z,24.26
2022-08-07T10:39:25.813Z,23.17
2022-08-07T10:40:30.021Z,22.59
2022-08-07T10:41:52.368Z,22.23
2022-08-07T10:42:31.287Z,22.06
2022-08-07T10:43:34.243Z,21.91
2022-08-07T10:44:28.442Z,21.82
2022-08-07T10:45:44.626Z,21.88
2022-08-07T10:46:27.078Z,21.58
2022-08-07T10:47:52.497Z,21.46
2022-08-07T10:48:34.653Z,21.22
2022-08-07T10:49:45.265Z,21.35
2022-08-07T10:50:27.869Z,22.18
2022-08-07T10:51:57.547Z,22.50
2022-08-07T10:52:31.873Z,23.05
2022-08-07T10:53:28.511Z,22.63
2022-08-07T10:54:28.665Z,22.45
2022-08-07T10:55:38.050Z,22.15
2022-08-07T10:56:31.365Z,21.99
2022-08-07T10:57:34.526Z,21.80
2022-08-07T10:58:33.160Z,22.17
2022-08-07T10:59:30.458Z,23.02
2022-08-07T11:00:36.892Z,23.68
2022-08-07T11:01:35.153Z,24.23
2022-08-07T11:02:34.088Z,24.73
2022-08-07T11:03:37.938Z,24.99
2022-08-07T11:04:34.696Z,25.33
2022-08-07T11:05:35.861Z,25.85
2022-08-07T11:06:31.071Z,25.98
2022-08-07T11:07:58.289Z,25.14
2022-08-07T11:08:31.376Z,24.38
2022-08-07T11:10:08.971Z,23.54
2022-08-07T11:10:31.755Z,22.70
2022-08-07T11:11:35.610Z,22.33
2022-08-07T11:12:35.343Z,21.99
2022-08-07T11:14:42.557Z,21.55
2022-08-07T11:15:00.362Z,21.30
2022-08-07T11:15:32.723Z,21.46
2022-08-07T11:16:32.916Z,22.25
2022-08-07T11:17:45.530Z,22.39
2022-08-07T11:18:33.380Z,22.13
2022-08-07T11:19:33.509Z,22.70
2022-08-07T11:20:33.696Z,23.02
2022-08-07T11:21:33.934Z,22.80
2022-08-07T11:22:37.103Z,22.44
2022-08-07T11:23:38.429Z,22.29
2022-08-07T11:24:34.468Z,22.07
2022-08-07T11:25:36.287Z,22.15
2022-08-07T11:26:34.837Z,22.00
2022-08-07T11:28:01.510Z,21.70
2022-08-07T11:28:35.233Z,21.69
2022-08-07T11:29:41.914Z,21.64
2022-08-07T11:30:41.479Z,21.66
2022-08-07T11:31:35.821Z,21.69
2022-08-07T11:32:36.019Z,21.80
2022-08-07T11:33:59.254Z,22.70
2022-08-07T11:34:36.468Z,23.24
2022-08-07T11:35:36.647Z,23.34
2022-08-07T11:36:36.812Z,23.73
2022-08-07T11:37:38.618Z,24.21
2022-08-07T11:38:37.231Z,24.63
2022-08-07T11:39:39.691Z,25.50
2022-08-07T11:40:37.631Z,25.87
2022-08-07T11:42:02.018Z,26.07
2022-08-07T11:42:38.027Z,25.88
2022-08-07T11:43:54.623Z,25.96
2022-08-07T11:44:38.418Z,25.99
2022-08-07T11:45:38.601Z,26.09
2022-08-07T11:46:38.811Z,25.51
2022-08-07T11:47:56.417Z,25.43
2022-08-07T11:48:39.233Z,25.41
2022-08-07T11:50:30.117Z,24.86
2022-08-07T11:50:44.696Z,24.54
2022-08-07T11:51:41.261Z,23.66
2022-08-07T11:52:40.049Z,22.83
2022-08-07T11:53:43.224Z,22.26
2022-08-07T11:54:40.453Z,22.02
2022-08-07T11:56:09.741Z,21.93
2022-08-07T11:56:40.843Z,21.64
2022-08-07T11:58:00.526Z,21.50
2022-08-07T11:58:41.247Z,21.20
2022-08-07T12:00:10.247Z,21.25
2022-08-07T12:00:41.601Z,21.17
2022-08-07T12:01:59.819Z,21.06
2022-08-07T12:02:52.094Z,20.99
2022-08-07T12:03:45.990Z,20.85
2022-08-07T12:04:42.351Z,20.87
2022-08-07T12:05:49.356Z,20.81
2022-08-07T12:06:50.247Z,20.75
2022-08-07T12:07:43.171Z,20.87
2022-08-07T12:08:43.104Z,20.84
2022-08-07T12:09:43.247Z,20.99
2022-08-07T12:10:43.453Z,21.12
2022-08-07T12:12:09.450Z,21.14
2022-08-07T12:12:43.843Z,21.09
2022-08-07T12:13:47.742Z,21.02
2022-08-07T12:14:44.191Z,20.90
2022-08-07T12:16:05.339Z,20.87
2022-08-07T12:16:44.568Z,21.00
2022-08-07T12:17:59.354Z,21.03
2022-08-07T12:18:45.261Z,21.06
2022-08-07T12:19:56.873Z,21.21
2022-08-07T12:20:45.326Z,21.33
2022-08-07T12:21:55.987Z,21.55
2022-08-07T12:22:56.521Z,21.60
2022-08-07T12:24:07.707Z,21.69
2022-08-07T12:24:46.106Z,21.88
2022-08-07T12:26:05.529Z,22.10
2022-08-07T12:26:49.352Z,22.30
2022-08-07T12:28:08.979Z,22.28
2022-08-07T12:28:49.759Z,22.25
2022-08-07T12:29:47.115Z,22.35
2022-08-07T12:30:53.170Z,22.26
2022-08-07T12:31:53.176Z,22.28
2022-08-07T12:32:49.093Z,22.51
2022-08-07T12:34:00.662Z,22.20
2022-08-07T12:34:49.412Z,22.32
2022-08-07T12:35:48.378Z,22.98
2022-08-07T12:36:49.392Z,23.24
2022-08-07T12:38:10.888Z,23.17
2022-08-07T12:38:57.245Z,23.65
2022-08-07T12:39:50.985Z,23.66
2022-08-07T12:40:50.364Z,24.11
2022-08-07T12:41:51.572Z,24.06
2022-08-07T12:42:54.891Z,24.08
2022-08-07T12:44:02.792Z,24.03
2022-08-07T12:44:50.130Z,23.81
2022-08-07T12:45:52.467Z,23.92
2022-08-07T12:46:50.829Z,23.95
2022-08-07T12:47:50.719Z,24.18
2022-08-07T12:48:52.531Z,24.53
2022-08-07T12:49:53.811Z,24.69
2022-08-07T12:50:51.398Z,24.65
2022-08-07T12:52:14.547Z,24.18
2022-08-07T12:52:52.294Z,23.78
2022-08-07T12:54:02.974Z,23.92
2022-08-07T12:54:54.711Z,23.65
2022-08-07T12:56:02.018Z,23.51
2022-08-07T12:56:55.290Z,23.46
2022-08-07T12:58:00.381Z,23.50
2022-08-07T12:58:57.255Z,23.36
2022-08-07T12:59:54.611Z,23.48
2022-08-07T13:00:53.396Z,23.27
2022-08-07T13:01:53.786Z,23.81
2022-08-07T13:02:53.735Z,23.80
2022-08-07T13:04:03.144Z,23.96
2022-08-07T13:05:01.431Z,23.66
2022-08-07T13:06:02.579Z,23.93
2022-08-07T13:07:01.860Z,24.43